sensor_id;sensor_type;location;lat;lon;timestamp;P1;durP1;ratioP1;P2;durP2;ratioP2
55015;SDS011;40919;43.236;21.590;2022-10-16T00:02:01;36.65;;;20.58;;
55015;SDS011;40919;43.236;21.590;2022-10-16T00:04:27;37.33;;;23.95;;
55015;SDS011;40919;43.236;21.590;2022-10-16T00:06:53;34.33;;;22.88;;
55015;SDS011;40919;43.236;21.590;2022-10-16T00:09:18;30.42;;;20.38;;
55015;SDS011;40919;43.236;21.590;2022-10-16T00:11:44;28.63;;;19.45;;
55015;SDS011;40919;43.236;21.590;2022-10-16T00:14:12;39.05;;;24.83;;
55015;SDS011;40919;43.236;21.590;2022-10-16T00:16:38;44.30;;;26.35;;
55015;SDS011;40919;43.236;21.590;2022-10-16T00:19:05;42.33;;;27.50;;
55015;SDS011;40919;43.236;21.590;2022-10-16T00:21:31;34.83;;;24.52;;
55015;SDS011;40919;43.236;21.590;2022-10-16T00:24:02;40.13;;;25.65;;
55015;SDS011;40919;43.236;21.590;2022-10-16T00:26:30;41.38;;;27.42;;
55015;SDS011;40919;43.236;21.590;2022-10-16T00:28:56;54.78;;;34.58;;
55015;SDS011;40919;43.236;21.590;2022-10-16T00:31:22;54.80;;;34.17;;
55015;SDS011;40919;43.236;21.590;2022-10-16T00:33:49;48.67;;;32.70;;
55015;SDS011;40919;43.236;21.590;2022-10-16T00:36:16;41.35;;;26.70;;
55015;SDS011;40919;43.236;21.590;2022-10-16T00:38:43;30.73;;;18.77;;
55015;SDS011;40919;43.236;21.590;2022-10-16T00:41:11;29.35;;;19.55;;
55015;SDS011;40919;43.236;21.590;2022-10-16T00:46:39;29.13;;;17.90;;
55015;SDS011;40919;43.236;21.590;2022-10-16T00:49:10;26.25;;;15.95;;
55015;SDS011;40919;43.236;21.590;2022-10-16T00:54:10;26.15;;;16.58;;
55015;SDS011;40919;43.236;21.590;2022-10-16T00:56:37;26.23;;;16.17;;
55015;SDS011;40919;43.236;21.590;2022-10-16T00:59:04;24.02;;;15.93;;
55015;SDS011;40919;43.236;21.590;2022-10-16T01:01:32;22.10;;;15.18;;
55015;SDS011;40919;43.236;21.590;2022-10-16T01:03:58;21.33;;;15.15;;
55015;SDS011;40919;43.236;21.590;2022-10-16T01:09:23;26.75;;;17.08;;
55015;SDS011;40919;43.236;21.590;2022-10-16T01:12:08;24.67;;;17.23;;
55015;SDS011;40919;43.236;21.590;2022-10-16T01:14:47;27.05;;;19.33;;
55015;SDS011;40919;43.236;21.590;2022-10-16T01:23:20;27.88;;;16.42;;
55015;SDS011;40919;43.236;21.590;2022-10-16T01:25:58;26.10;;;15.35;;
55015;SDS011;40919;43.236;21.590;2022-10-16T01:31:35;21.33;;;14.43;;
55015;SDS011;40919;43.236;21.590;2022-10-16T01:34:13;24.38;;;16.35;;
55015;SDS011;40919;43.236;21.590;2022-10-16T01:36:44;27.35;;;16.08;;
55015;SDS011;40919;43.236;21.590;2022-10-16T01:39:15;22.08;;;13.95;;
55015;SDS011;40919;43.236;21.590;2022-10-16T01:41:52;21.35;;;14.65;;
55015;SDS011;40919;43.236;21.590;2022-10-16T01:44:31;23.85;;;14.93;;
55015;SDS011;40919;43.236;21.590;2022-10-16T01:46:58;23.60;;;16.25;;
55015;SDS011;40919;43.236;21.590;2022-10-16T01:49:27;23.13;;;13.73;;
55015;SDS011;40919;43.236;21.590;2022-10-16T01:51:57;24.00;;;15.73;;
55015;SDS011;40919;43.236;21.590;2022-10-16T01:54:26;23.85;;;15.30;;
55015;SDS011;40919;43.236;21.590;2022-10-16T01:56:54;25.85;;;15.45;;
55015;SDS011;40919;43.236;21.590;2022-10-16T01:59:22;30.90;;;16.23;;
55015;SDS011;40919;43.236;21.590;2022-10-16T02:01:54;25.05;;;15.40;;
55015;SDS011;40919;43.236;21.590;2022-10-16T02:04:27;25.15;;;16.83;;
55015;SDS011;40919;43.236;21.590;2022-10-16T02:06:58;28.45;;;17.55;;
55015;SDS011;40919;43.236;21.590;2022-10-16T02:09:24;30.67;;;17.35;;
55015;SDS011;40919;43.236;21.590;2022-10-16T02:11:51;28.42;;;16.08;;
55015;SDS011;40919;43.236;21.590;2022-10-16T02:14:20;27.17;;;17.92;;
55015;SDS011;40919;43.236;21.590;2022-10-16T02:16:49;27.45;;;17.77;;
55015;SDS011;40919;43.236;21.590;2022-10-16T02:19:15;23.77;;;16.58;;
55015;SDS011;40919;43.236;21.590;2022-10-16T02:27:10;34.40;;;19.60;;
55015;SDS011;40919;43.236;21.590;2022-10-16T02:29:47;32.45;;;19.08;;
55015;SDS011;40919;43.236;21.590;2022-10-16T02:32:18;30.45;;;17.98;;
55015;SDS011;40919;43.236;21.590;2022-10-16T02:34:45;35.65;;;18.38;;
55015;SDS011;40919;43.236;21.590;2022-10-16T02:37:12;30.73;;;16.42;;
55015;SDS011;40919;43.236;21.590;2022-10-16T02:39:38;24.80;;;15.20;;
55015;SDS011;40919;43.236;21.590;2022-10-16T02:42:09;27.20;;;15.48;;
55015;SDS011;40919;43.236;21.590;2022-10-16T02:44:35;26.17;;;15.60;;
55015;SDS011;40919;43.236;21.590;2022-10-16T02:47:01;23.33;;;15.13;;
55015;SDS011;40919;43.236;21.590;2022-10-16T02:49:27;27.38;;;16.10;;
55015;SDS011;40919;43.236;21.590;2022-10-16T02:51:53;26.85;;;16.98;;
55015;SDS011;40919;43.236;21.590;2022-10-16T02:54:19;31.63;;;16.67;;
55015;SDS011;40919;43.236;21.590;2022-10-16T02:56:45;25.70;;;16.77;;
55015;SDS011;40919;43.236;21.590;2022-10-16T02:59:12;26.75;;;16.50;;
55015;SDS011;40919;43.236;21.590;2022-10-16T03:01:38;22.40;;;15.32;;
55015;SDS011;40919;43.236;21.590;2022-10-16T03:04:04;22.98;;;15.68;;
55015;SDS011;40919;43.236;21.590;2022-10-16T03:06:30;19.17;;;14.15;;
55015;SDS011;40919;43.236;21.590;2022-10-16T03:08:56;24.42;;;15.57;;
55015;SDS011;40919;43.236;21.590;2022-10-16T03:11:21;27.25;;;15.00;;
55015;SDS011;40919;43.236;21.590;2022-10-16T03:13:47;23.15;;;15.57;;
55015;SDS011;40919;43.236;21.590;2022-10-16T03:16:13;23.35;;;13.40;;
55015;SDS011;40919;43.236;21.590;2022-10-16T03:18:39;23.25;;;13.98;;
55015;SDS011;40919;43.236;21.590;2022-10-16T03:21:04;24.15;;;13.48;;
55015;SDS011;40919;43.236;21.590;2022-10-16T03:23:30;24.25;;;13.77;;
55015;SDS011;40919;43.236;21.590;2022-10-16T03:25:56;25.42;;;13.85;;
55015;SDS011;40919;43.236;21.590;2022-10-16T03:28:22;24.27;;;13.40;;
55015;SDS011;40919;43.236;21.590;2022-10-16T03:30:48;23.92;;;15.30;;
55015;SDS011;40919;43.236;21.590;2022-10-16T03:33:13;34.67;;;15.13;;
55015;SDS011;40919;43.236;21.590;2022-10-16T03:35:39;23.67;;;14.48;;
55015;SDS011;40919;43.236;21.590;2022-10-16T03:38:05;21.10;;;13.80;;
55015;SDS011;40919;43.236;21.590;2022-10-16T03:40:31;27.52;;;13.50;;
55015;SDS011;40919;43.236;21.590;2022-10-16T03:42:58;21.10;;;13.25;;
55015;SDS011;40919;43.236;21.590;2022-10-16T03:45:24;23.67;;;13.32;;
55015;SDS011;40919;43.236;21.590;2022-10-16T03:47:51;18.73;;;13.23;;
55015;SDS011;40919;43.236;21.590;2022-10-16T03:50:16;20.23;;;12.55;;
55015;SDS011;40919;43.236;21.590;2022-10-16T03:52:42;20.15;;;13.23;;
55015;SDS011;40919;43.236;21.590;2022-10-16T03:55:08;25.10;;;13.93;;
55015;SDS011;40919;43.236;21.590;2022-10-16T03:57:34;21.55;;;13.95;;
55015;SDS011;40919;43.236;21.590;2022-10-16T04:00:00;21.63;;;13.32;;
55015;SDS011;40919;43.236;21.590;2022-10-16T04:02:26;19.70;;;11.80;;
55015;SDS011;40919;43.236;21.590;2022-10-16T04:04:51;15.68;;;10.85;;
55015;SDS011;40919;43.236;21.590;2022-10-16T04:07:17;15.80;;;11.15;;
55015;SDS011;40919;43.236;21.590;2022-10-16T04:09:43;16.77;;;10.75;;
55015;SDS011;40919;43.236;21.590;2022-10-16T04:12:09;25.27;;;12.05;;
55015;SDS011;40919;43.236;21.590;2022-10-16T04:14:35;20.33;;;11.88;;
55015;SDS011;40919;43.236;21.590;2022-10-16T04:17:00;19.98;;;12.02;;
55015;SDS011;40919;43.236;21.590;2022-10-16T04:19:26;33.50;;;20.33;;
55015;SDS011;40919;43.236;21.590;2022-10-16T04:21:52;96.43;;;63.03;;
55015;SDS011;40919;43.236;21.590;2022-10-16T04:24:18;77.70;;;46.47;;
55015;SDS011;40919;43.236;21.590;2022-10-16T04:26:43;73.60;;;47.55;;
55015;SDS011;40919;43.236;21.590;2022-10-16T04:29:09;42.55;;;26.05;;
55015;SDS011;40919;43.236;21.590;2022-10-16T04:31:35;32.97;;;20.05;;
55015;SDS011;40919;43.236;21.590;2022-10-16T04:34:01;25.63;;;15.90;;
55015;SDS011;40919;43.236;21.590;2022-10-16T04:36:26;26.27;;;14.73;;
55015;SDS011;40919;43.236;21.590;2022-10-16T04:38:52;24.48;;;15.30;;
55015;SDS011;40919;43.236;21.590;2022-10-16T04:41:18;23.20;;;15.70;;
55015;SDS011;40919;43.236;21.590;2022-10-16T04:43:44;36.53;;;21.90;;
55015;SDS011;40919;43.236;21.590;2022-10-16T04:46:11;38.08;;;21.48;;
55015;SDS011;40919;43.236;21.590;2022-10-16T04:48:37;55.97;;;30.10;;
55015;SDS011;40919;43.236;21.590;2022-10-16T04:51:03;35.22;;;21.50;;
55015;SDS011;40919;43.236;21.590;2022-10-16T04:53:29;38.55;;;23.38;;
55015;SDS011;40919;43.236;21.590;2022-10-16T04:55:55;47.45;;;28.77;;
55015;SDS011;40919;43.236;21.590;2022-10-16T04:58:22;34.13;;;20.38;;
55015;SDS011;40919;43.236;21.590;2022-10-16T05:00:48;23.73;;;14.80;;
55015;SDS011;40919;43.236;21.590;2022-10-16T05:03:14;23.83;;;15.05;;
55015;SDS011;40919;43.236;21.590;2022-10-16T05:05:44;23.65;;;15.82;;
55015;SDS011;40919;43.236;21.590;2022-10-16T05:08:14;46.08;;;27.80;;
55015;SDS011;40919;43.236;21.590;2022-10-16T05:10:41;28.38;;;18.05;;
55015;SDS011;40919;43.236;21.590;2022-10-16T05:13:07;29.73;;;18.23;;
55015;SDS011;40919;43.236;21.590;2022-10-16T05:15:33;18.63;;;14.55;;
55015;SDS011;40919;43.236;21.590;2022-10-16T05:17:59;23.85;;;16.10;;
55015;SDS011;40919;43.236;21.590;2022-10-16T05:20:26;29.48;;;19.30;;
55015;SDS011;40919;43.236;21.590;2022-10-16T05:22:52;25.40;;;15.88;;
55015;SDS011;40919;43.236;21.590;2022-10-16T05:25:18;28.13;;;17.05;;
55015;SDS011;40919;43.236;21.590;2022-10-16T05:27:46;32.85;;;21.50;;
55015;SDS011;40919;43.236;21.590;2022-10-16T05:30:13;38.10;;;24.58;;
55015;SDS011;40919;43.236;21.590;2022-10-16T05:32:39;32.28;;;22.33;;
55015;SDS011;40919;43.236;21.590;2022-10-16T05:35:05;36.38;;;21.38;;
55015;SDS011;40919;43.236;21.590;2022-10-16T05:37:31;28.75;;;17.83;;
55015;SDS011;40919;43.236;21.590;2022-10-16T05:39:57;35.10;;;19.00;;
55015;SDS011;40919;43.236;21.590;2022-10-16T05:42:23;30.50;;;17.52;;
55015;SDS011;40919;43.236;21.590;2022-10-16T05:44:49;32.72;;;17.33;;
55015;SDS011;40919;43.236;21.590;2022-10-16T05:47:14;24.48;;;16.45;;
55015;SDS011;40919;43.236;21.590;2022-10-16T05:49:40;25.75;;;15.50;;
55015;SDS011;40919;43.236;21.590;2022-10-16T05:52:06;27.48;;;17.55;;
55015;SDS011;40919;43.236;21.590;2022-10-16T05:54:32;32.13;;;17.55;;
55015;SDS011;40919;43.236;21.590;2022-10-16T05:56:57;29.77;;;16.85;;
55015;SDS011;40919;43.236;21.590;2022-10-16T05:59:23;26.45;;;16.38;;
55015;SDS011;40919;43.236;21.590;2022-10-16T06:01:49;28.27;;;18.45;;
55015;SDS011;40919;43.236;21.590;2022-10-16T06:04:15;32.97;;;20.30;;
55015;SDS011;40919;43.236;21.590;2022-10-16T06:06:40;32.65;;;21.50;;
55015;SDS011;40919;43.236;21.590;2022-10-16T06:09:06;32.28;;;21.13;;
55015;SDS011;40919;43.236;21.590;2022-10-16T06:11:32;30.48;;;21.75;;
55015;SDS011;40919;43.236;21.590;2022-10-16T06:13:59;30.85;;;20.33;;
55015;SDS011;40919;43.236;21.590;2022-10-16T06:16:27;31.98;;;21.58;;
55015;SDS011;40919;43.236;21.590;2022-10-16T06:18:54;31.23;;;20.92;;
55015;SDS011;40919;43.236;21.590;2022-10-16T06:21:25;27.30;;;19.67;;
55015;SDS011;40919;43.236;21.590;2022-10-16T06:23:52;28.25;;;21.77;;
55015;SDS011;40919;43.236;21.590;2022-10-16T06:26:21;27.65;;;18.75;;
55015;SDS011;40919;43.236;21.590;2022-10-16T06:28:48;28.42;;;19.88;;
55015;SDS011;40919;43.236;21.590;2022-10-16T06:31:15;29.67;;;20.17;;
55015;SDS011;40919;43.236;21.590;2022-10-16T06:33:42;28.63;;;20.25;;
55015;SDS011;40919;43.236;21.590;2022-10-16T06:36:14;28.98;;;17.83;;
55015;SDS011;40919;43.236;21.590;2022-10-16T06:38:41;23.75;;;16.70;;
55015;SDS011;40919;43.236;21.590;2022-10-16T06:41:09;23.85;;;17.25;;
55015;SDS011;40919;43.236;21.590;2022-10-16T06:43:40;19.77;;;14.90;;
55015;SDS011;40919;43.236;21.590;2022-10-16T06:46:07;25.75;;;14.73;;
55015;SDS011;40919;43.236;21.590;2022-10-16T06:48:35;20.77;;;14.15;;
55015;SDS011;40919;43.236;21.590;2022-10-16T06:51:05;21.35;;;14.40;;
55015;SDS011;40919;43.236;21.590;2022-10-16T06:53:34;23.88;;;15.35;;
55015;SDS011;40919;43.236;21.590;2022-10-16T06:56:11;20.45;;;14.85;;
55015;SDS011;40919;43.236;21.590;2022-10-16T06:58:42;25.05;;;16.17;;
55015;SDS011;40919;43.236;21.590;2022-10-16T07:01:08;22.23;;;14.95;;
55015;SDS011;40919;43.236;21.590;2022-10-16T07:03:36;21.10;;;15.07;;
55015;SDS011;40919;43.236;21.590;2022-10-16T07:06:03;21.50;;;14.52;;
55015;SDS011;40919;43.236;21.590;2022-10-16T07:08:35;21.05;;;15.82;;
55015;SDS011;40919;43.236;21.590;2022-10-16T07:11:03;22.70;;;15.35;;
55015;SDS011;40919;43.236;21.590;2022-10-16T07:13:34;27.80;;;17.00;;
55015;SDS011;40919;43.236;21.590;2022-10-16T07:16:08;26.55;;;17.40;;
55015;SDS011;40919;43.236;21.590;2022-10-16T07:18:34;24.38;;;16.42;;
55015;SDS011;40919;43.236;21.590;2022-10-16T07:21:09;30.10;;;18.65;;
55015;SDS011;40919;43.236;21.590;2022-10-16T07:23:36;28.30;;;17.95;;
55015;SDS011;40919;43.236;21.590;2022-10-16T07:26:02;33.58;;;19.38;;
55015;SDS011;40919;43.236;21.590;2022-10-16T07:28:30;23.40;;;16.88;;
55015;SDS011;40919;43.236;21.590;2022-10-16T07:31:07;26.42;;;16.35;;
55015;SDS011;40919;43.236;21.590;2022-10-16T07:33:38;21.35;;;15.68;;
55015;SDS011;40919;43.236;21.590;2022-10-16T07:36:07;24.23;;;16.75;;
55015;SDS011;40919;43.236;21.590;2022-10-16T07:38:33;20.88;;;15.23;;
55015;SDS011;40919;43.236;21.590;2022-10-16T07:40:59;24.58;;;15.75;;
55015;SDS011;40919;43.236;21.590;2022-10-16T07:43:29;20.58;;;14.43;;
55015;SDS011;40919;43.236;21.590;2022-10-16T07:45:55;21.98;;;15.45;;
55015;SDS011;40919;43.236;21.590;2022-10-16T07:48:22;19.25;;;13.02;;
55015;SDS011;40919;43.236;21.590;2022-10-16T07:50:48;24.15;;;14.18;;
55015;SDS011;40919;43.236;21.590;2022-10-16T07:53:14;19.77;;;13.32;;
55015;SDS011;40919;43.236;21.590;2022-10-16T07:55:40;18.58;;;13.77;;
55015;SDS011;40919;43.236;21.590;2022-10-16T07:58:07;18.38;;;13.25;;
55015;SDS011;40919;43.236;21.590;2022-10-16T08:00:33;18.67;;;11.73;;
55015;SDS011;40919;43.236;21.590;2022-10-16T08:03:00;17.13;;;10.82;;
55015;SDS011;40919;43.236;21.590;2022-10-16T08:05:29;17.00;;;11.88;;
55015;SDS011;40919;43.236;21.590;2022-10-16T08:07:57;16.00;;;10.63;;
55015;SDS011;40919;43.236;21.590;2022-10-16T08:10:24;16.58;;;11.35;;
55015;SDS011;40919;43.236;21.590;2022-10-16T08:12:51;16.42;;;10.02;;
55015;SDS011;40919;43.236;21.590;2022-10-16T08:15:18;13.85;;;9.80;;
55015;SDS011;40919;43.236;21.590;2022-10-16T08:17:44;11.93;;;9.05;;
55015;SDS011;40919;43.236;21.590;2022-10-16T08:20:19;13.88;;;8.80;;
55015;SDS011;40919;43.236;21.590;2022-10-16T08:22:44;14.30;;;9.63;;
55015;SDS011;40919;43.236;21.590;2022-10-16T08:25:10;15.55;;;10.98;;
55015;SDS011;40919;43.236;21.590;2022-10-16T08:27:36;15.75;;;10.35;;
55015;SDS011;40919;43.236;21.590;2022-10-16T08:30:02;17.08;;;11.05;;
55015;SDS011;40919;43.236;21.590;2022-10-16T08:32:28;17.67;;;12.23;;
55015;SDS011;40919;43.236;21.590;2022-10-16T08:34:54;16.63;;;10.98;;
55015;SDS011;40919;43.236;21.590;2022-10-16T08:37:19;15.88;;;10.05;;
55015;SDS011;40919;43.236;21.590;2022-10-16T08:39:45;16.02;;;10.40;;
55015;SDS011;40919;43.236;21.590;2022-10-16T08:42:20;20.65;;;10.07;;
55015;SDS011;40919;43.236;21.590;2022-10-16T08:47:43;17.10;;;11.43;;
55015;SDS011;40919;43.236;21.590;2022-10-16T08:50:12;16.90;;;11.93;;
55015;SDS011;40919;43.236;21.590;2022-10-16T08:52:40;18.77;;;12.20;;
55015;SDS011;40919;43.236;21.590;2022-10-16T08:55:10;21.05;;;12.60;;
55015;SDS011;40919;43.236;21.590;2022-10-16T08:58:05;18.48;;;11.93;;
55015;SDS011;40919;43.236;21.590;2022-10-16T09:00:40;16.83;;;10.90;;
55015;SDS011;40919;43.236;21.590;2022-10-16T09:08:57;15.05;;;10.07;;
55015;SDS011;40919;43.236;21.590;2022-10-16T09:14:02;12.25;;;9.00;;
55015;SDS011;40919;43.236;21.590;2022-10-16T09:16:51;14.57;;;9.07;;
55015;SDS011;40919;43.236;21.590;2022-10-16T09:19:28;11.35;;;8.13;;
55015;SDS011;40919;43.236;21.590;2022-10-16T09:22:11;13.77;;;9.63;;
55015;SDS011;40919;43.236;21.590;2022-10-16T09:24:40;11.70;;;8.82;;
55015;SDS011;40919;43.236;21.590;2022-10-16T09:27:10;14.50;;;8.57;;
55015;SDS011;40919;43.236;21.590;2022-10-16T09:29:37;12.02;;;8.70;;
55015;SDS011;40919;43.236;21.590;2022-10-16T09:32:19;13.77;;;9.75;;
55015;SDS011;40919;43.236;21.590;2022-10-16T09:34:50;12.52;;;8.82;;
55015;SDS011;40919;43.236;21.590;2022-10-16T09:37:17;12.48;;;9.43;;
55015;SDS011;40919;43.236;21.590;2022-10-16T09:39:45;13.10;;;8.75;;
55015;SDS011;40919;43.236;21.590;2022-10-16T09:42:14;14.80;;;10.35;;
55015;SDS011;40919;43.236;21.590;2022-10-16T09:44:40;14.48;;;10.43;;
55015;SDS011;40919;43.236;21.590;2022-10-16T09:47:14;17.83;;;9.20;;
55015;SDS011;40919;43.236;21.590;2022-10-16T09:50:03;16.10;;;8.45;;
55015;SDS011;40919;43.236;21.590;2022-10-16T09:52:31;14.10;;;10.27;;
55015;SDS011;40919;43.236;21.590;2022-10-16T09:55:02;18.42;;;10.23;;
55015;SDS011;40919;43.236;21.590;2022-10-16T09:57:29;13.75;;;9.68;;
55015;SDS011;40919;43.236;21.590;2022-10-16T09:59:56;15.48;;;10.30;;
55015;SDS011;40919;43.236;21.590;2022-10-16T10:04:52;15.55;;;9.88;;
55015;SDS011;40919;43.236;21.590;2022-10-16T10:07:42;22.77;;;11.52;;
55015;SDS011;40919;43.236;21.590;2022-10-16T10:10:06;12.27;;;8.70;;
55015;SDS011;40919;43.236;21.590;2022-10-16T10:12:32;13.90;;;9.43;;
55015;SDS011;40919;43.236;21.590;2022-10-16T10:15:05;14.45;;;8.95;;
55015;SDS011;40919;43.236;21.590;2022-10-16T10:17:32;13.75;;;9.10;;
55015;SDS011;40919;43.236;21.590;2022-10-16T10:20:00;13.02;;;8.32;;
55015;SDS011;40919;43.236;21.590;2022-10-16T10:22:30;14.20;;;7.88;;
55015;SDS011;40919;43.236;21.590;2022-10-16T10:27:41;18.15;;;10.60;;
55015;SDS011;40919;43.236;21.590;2022-10-16T10:30:21;17.88;;;13.88;;
55015;SDS011;40919;43.236;21.590;2022-10-16T10:38:06;19.42;;;9.60;;
55015;SDS011;40919;43.236;21.590;2022-10-16T10:45:43;15.48;;;9.10;;
55015;SDS011;40919;43.236;21.590;2022-10-16T10:50:58;10.40;;;6.68;;
55015;SDS011;40919;43.236;21.590;2022-10-16T10:53:38;10.05;;;6.88;;
55015;SDS011;40919;43.236;21.590;2022-10-16T11:06:43;16.17;;;9.50;;
55015;SDS011;40919;43.236;21.590;2022-10-16T11:09:13;15.98;;;9.10;;
55015;SDS011;40919;43.236;21.590;2022-10-16T11:11:47;17.13;;;10.30;;
55015;SDS011;40919;43.236;21.590;2022-10-16T11:14:19;14.60;;;9.85;;
55015;SDS011;40919;43.236;21.590;2022-10-16T11:16:58;10.93;;;7.28;;
55015;SDS011;40919;43.236;21.590;2022-10-16T11:19:34;12.65;;;7.43;;
55015;SDS011;40919;43.236;21.590;2022-10-16T11:22:02;16.85;;;10.98;;
55015;SDS011;40919;43.236;21.590;2022-10-16T11:24:36;16.70;;;8.70;;
55015;SDS011;40919;43.236;21.590;2022-10-16T11:27:07;14.85;;;8.68;;
55015;SDS011;40919;43.236;21.590;2022-10-16T11:29:40;8.88;;;5.93;;
55015;SDS011;40919;43.236;21.590;2022-10-16T11:32:47;9.55;;;5.50;;
55015;SDS011;40919;43.236;21.590;2022-10-16T11:35:15;7.95;;;5.47;;
55015;SDS011;40919;43.236;21.590;2022-10-16T11:37:44;6.45;;;4.32;;
55015;SDS011;40919;43.236;21.590;2022-10-16T11:40:24;6.90;;;4.72;;
55015;SDS011;40919;43.236;21.590;2022-10-16T11:42:54;7.20;;;4.47;;
55015;SDS011;40919;43.236;21.590;2022-10-16T11:48:04;9.73;;;5.68;;
55015;SDS011;40919;43.236;21.590;2022-10-16T11:53:14;8.25;;;4.90;;
55015;SDS011;40919;43.236;21.590;2022-10-16T11:55:42;7.55;;;4.22;;
55015;SDS011;40919;43.236;21.590;2022-10-16T12:06:22;7.22;;;4.82;;
55015;SDS011;40919;43.236;21.590;2022-10-16T12:08:45;12.07;;;5.47;;
55015;SDS011;40919;43.236;21.590;2022-10-16T12:11:32;10.30;;;5.50;;
55015;SDS011;40919;43.236;21.590;2022-10-16T12:16:31;7.10;;;4.65;;
55015;SDS011;40919;43.236;21.590;2022-10-16T12:19:10;6.03;;;4.32;;
55015;SDS011;40919;43.236;21.590;2022-10-16T12:21:37;6.75;;;4.25;;
55015;SDS011;40919;43.236;21.590;2022-10-16T12:24:03;5.90;;;4.25;;
55015;SDS011;40919;43.236;21.590;2022-10-16T12:26:36;6.43;;;4.15;;
55015;SDS011;40919;43.236;21.590;2022-10-16T12:29:12;9.73;;;5.45;;
55015;SDS011;40919;43.236;21.590;2022-10-16T12:31:42;8.13;;;4.25;;
55015;SDS011;40919;43.236;21.590;2022-10-16T12:34:34;8.50;;;5.22;;
55015;SDS011;40919;43.236;21.590;2022-10-16T12:36:56;11.77;;;5.35;;
55015;SDS011;40919;43.236;21.590;2022-10-16T12:39:33;5.03;;;3.50;;
55015;SDS011;40919;43.236;21.590;2022-10-16T12:42:00;7.13;;;3.30;;
55015;SDS011;40919;43.236;21.590;2022-10-16T12:44:27;4.72;;;3.50;;
55015;SDS011;40919;43.236;21.590;2022-10-16T12:46:57;5.60;;;3.53;;
55015;SDS011;40919;43.236;21.590;2022-10-16T12:49:31;4.80;;;3.42;;
55015;SDS011;40919;43.236;21.590;2022-10-16T12:51:58;5.78;;;3.60;;
55015;SDS011;40919;43.236;21.590;2022-10-16T12:54:28;7.57;;;3.80;;
55015;SDS011;40919;43.236;21.590;2022-10-16T12:59:53;6.10;;;4.40;;
55015;SDS011;40919;43.236;21.590;2022-10-16T13:10:23;24.23;;;5.22;;
55015;SDS011;40919;43.236;21.590;2022-10-16T13:16:03;8.23;;;4.40;;
55015;SDS011;40919;43.236;21.590;2022-10-16T13:18:18;7.00;;;4.10;;
55015;SDS011;40919;43.236;21.590;2022-10-16T13:20:55;6.63;;;4.15;;
55015;SDS011;40919;43.236;21.590;2022-10-16T13:23:27;5.20;;;3.88;;
55015;SDS011;40919;43.236;21.590;2022-10-16T13:28:35;9.57;;;7.63;;
55015;SDS011;40919;43.236;21.590;2022-10-16T13:31:02;7.72;;;5.40;;
55015;SDS011;40919;43.236;21.590;2022-10-16T13:33:31;8.40;;;5.13;;
55015;SDS011;40919;43.236;21.590;2022-10-16T13:35:58;8.45;;;4.70;;
55015;SDS011;40919;43.236;21.590;2022-10-16T13:38:25;6.88;;;4.45;;
55015;SDS011;40919;43.236;21.590;2022-10-16T13:40:53;7.65;;;4.95;;
55015;SDS011;40919;43.236;21.590;2022-10-16T13:43:41;8.43;;;4.40;;
55015;SDS011;40919;43.236;21.590;2022-10-16T13:46:11;7.57;;;5.00;;
55015;SDS011;40919;43.236;21.590;2022-10-16T13:48:38;9.80;;;4.90;;
55015;SDS011;40919;43.236;21.590;2022-10-16T13:53:34;10.98;;;6.63;;
55015;SDS011;40919;43.236;21.590;2022-10-16T13:56:01;9.85;;;6.47;;
55015;SDS011;40919;43.236;21.590;2022-10-16T13:58:27;11.77;;;5.53;;
55015;SDS011;40919;43.236;21.590;2022-10-16T14:00:58;7.05;;;5.38;;
55015;SDS011;40919;43.236;21.590;2022-10-16T14:03:25;7.32;;;5.07;;
55015;SDS011;40919;43.236;21.590;2022-10-16T14:05:55;12.82;;;5.50;;
55015;SDS011;40919;43.236;21.590;2022-10-16T14:08:22;10.73;;;4.30;;
55015;SDS011;40919;43.236;21.590;2022-10-16T14:10:50;14.10;;;5.53;;
55015;SDS011;40919;43.236;21.590;2022-10-16T14:13:18;9.38;;;5.90;;
55015;SDS011;40919;43.236;21.590;2022-10-16T14:15:46;8.52;;;5.18;;
55015;SDS011;40919;43.236;21.590;2022-10-16T14:18:18;12.35;;;5.70;;
55015;SDS011;40919;43.236;21.590;2022-10-16T14:20:48;8.65;;;5.38;;
55015;SDS011;40919;43.236;21.590;2022-10-16T14:23:19;12.38;;;5.97;;
55015;SDS011;40919;43.236;21.590;2022-10-16T14:25:46;9.30;;;5.68;;
55015;SDS011;40919;43.236;21.590;2022-10-16T14:28:16;8.70;;;6.88;;
55015;SDS011;40919;43.236;21.590;2022-10-16T14:33:20;13.10;;;8.32;;
55015;SDS011;40919;43.236;21.590;2022-10-16T14:35:46;10.38;;;6.30;;
55015;SDS011;40919;43.236;21.590;2022-10-16T14:38:26;13.27;;;8.93;;
55015;SDS011;40919;43.236;21.590;2022-10-16T14:40:52;12.40;;;7.85;;
55015;SDS011;40919;43.236;21.590;2022-10-16T14:43:22;16.20;;;8.63;;
55015;SDS011;40919;43.236;21.590;2022-10-16T14:45:52;10.90;;;7.55;;
55015;SDS011;40919;43.236;21.590;2022-10-16T14:48:20;10.43;;;7.82;;
55015;SDS011;40919;43.236;21.590;2022-10-16T14:50:46;14.23;;;11.85;;
55015;SDS011;40919;43.236;21.590;2022-10-16T14:53:12;13.70;;;11.35;;
55015;SDS011;40919;43.236;21.590;2022-10-16T14:55:38;17.98;;;11.18;;
55015;SDS011;40919;43.236;21.590;2022-10-16T14:58:05;12.55;;;9.45;;
55015;SDS011;40919;43.236;21.590;2022-10-16T15:00:31;16.67;;;11.02;;
55015;SDS011;40919;43.236;21.590;2022-10-16T15:02:57;15.02;;;9.40;;
55015;SDS011;40919;43.236;21.590;2022-10-16T15:05:24;12.25;;;8.63;;
55015;SDS011;40919;43.236;21.590;2022-10-16T15:07:51;14.88;;;8.45;;
55015;SDS011;40919;43.236;21.590;2022-10-16T15:10:18;15.75;;;9.88;;
55015;SDS011;40919;43.236;21.590;2022-10-16T15:12:46;12.75;;;9.38;;
55015;SDS011;40919;43.236;21.590;2022-10-16T15:17:48;14.73;;;10.75;;
55015;SDS011;40919;43.236;21.590;2022-10-16T15:20:17;17.90;;;12.88;;
55015;SDS011;40919;43.236;21.590;2022-10-16T15:22:43;18.20;;;13.75;;
55015;SDS011;40919;43.236;21.590;2022-10-16T15:25:31;21.23;;;11.60;;
55015;SDS011;40919;43.236;21.590;2022-10-16T15:27:57;18.15;;;12.07;;
55015;SDS011;40919;43.236;21.590;2022-10-16T15:30:24;27.98;;;16.65;;
55015;SDS011;40919;43.236;21.590;2022-10-16T15:32:50;25.15;;;17.08;;
55015;SDS011;40919;43.236;21.590;2022-10-16T15:35:16;29.10;;;20.02;;
55015;SDS011;40919;43.236;21.590;2022-10-16T15:37:42;32.38;;;20.00;;
55015;SDS011;40919;43.236;21.590;2022-10-16T15:40:09;32.17;;;24.10;;
55015;SDS011;40919;43.236;21.590;2022-10-16T15:42:35;35.45;;;21.52;;
55015;SDS011;40919;43.236;21.590;2022-10-16T15:45:02;39.63;;;29.33;;
55015;SDS011;40919;43.236;21.590;2022-10-16T15:47:29;40.97;;;30.60;;
55015;SDS011;40919;43.236;21.590;2022-10-16T15:49:55;40.65;;;29.75;;
55015;SDS011;40919;43.236;21.590;2022-10-16T15:52:20;44.35;;;34.95;;
55015;SDS011;40919;43.236;21.590;2022-10-16T15:54:46;49.72;;;37.58;;
55015;SDS011;40919;43.236;21.590;2022-10-16T15:57:12;51.15;;;39.10;;
55015;SDS011;40919;43.236;21.590;2022-10-16T15:59:38;60.55;;;48.97;;
55015;SDS011;40919;43.236;21.590;2022-10-16T16:02:04;58.85;;;42.42;;
55015;SDS011;40919;43.236;21.590;2022-10-16T16:04:30;46.47;;;33.83;;
55015;SDS011;40919;43.236;21.590;2022-10-16T16:06:56;37.78;;;28.45;;